Home > Products > Valid Products > TAF

000
FTUS45 KTFX 311720
TAFBZN
TAF
KBZN 311720Z 3118/0118 32007KT P6SM SCT050 SCT120
      TEMPO 3118/3122 BKN050
     FM010200 15005KT P6SM SCT120=



000
FTUS45 KTFX 311720
TAFGTF
TAF
KGTF 311720Z 3118/0118 34015KT P6SM SCT050 SCT120
      TEMPO 3118/3122 BKN050
     FM010200 21008KT P6SM SCT120=



000
FTUS45 KTFX 311720
TAFLWT
TAF
KLWT 311720Z 3118/0118 30015G22KT P6SM -SHRA SCT007 BKN015
      TEMPO 3118/3121 5SM -RA BR BKN007
     FM312100 31015G22KT P6SM VCSH SCT015 BKN025
     FM010000 28012KT P6SM SCT050 BKN080
     FM010400 VRB06KT P6SM SCT150=



000
FTUS45 KTFX 311720
TAFHLN
TAF
KHLN 311720Z 3118/0118 36007KT P6SM SCT070 SCT120
      TEMPO 3118/3122 BKN070
     FM010200 VRB06KT P6SM SCT120=



000
FTUS45 KTFX 311720
TAFCTB
TAF
KCTB 311720Z 3118/0118 32016KT P6SM SCT050 SCT120
     FM010200 16008KT P6SM SCT120=



000
FTUS45 KTFX 311720
TAFHVR
TAF
KHVR 311720Z 3118/0118 31013G20KT P6SM VCSH SCT015 BKN025
      TEMPO 3118/3121 -SHRA BKN015
     FM312100 32014G20KT P6SM SCT025 BKN050
     FM010200 23005KT P6SM SCT050 BKN150=



000
FTUS45 KTFX 311220 AAA
TAFLWT
TAF AMD
KLWT 311220Z 3112/0112 29018G28KT P6SM VCSH BKN015 BKN040
      TEMPO 3112/3114 2SM RA BR OVC015
     FM311500 30015G25KT P6SM BKN040 BKN070
     FM311800 31013G21KT P6SM BKN090
     FM010000 28007KT P6SM FEW120=



000
FTUS45 KTFX 311128
TAFHVR
TAF
KHVR 311128Z 3112/0112 31018G24KT P6SM SCT010 BKN040
      TEMPO 3112/3115 -RA BKN010
     FM311500 32015KT P6SM SCT020 BKN060
     FM312000 32010KT P6SM SCT120=



000
FTUS45 KTFX 311128
TAFCTB
TAF
KCTB 311128Z 3112/0112 31013KT P6SM SKC=



000
FTUS45 KTFX 311128
TAFBZN
TAF
KBZN 311128Z 3112/0112 32005KT P6SM FEW120=



000
FTUS45 KTFX 311128
TAFGTF
TAF
KGTF 311128Z 3112/0112 31012KT P6SM FEW100=



000
FTUS45 KTFX 311128
TAFHLN
TAF
KHLN 311128Z 3112/0112 25007KT P6SM FEW070=



000
FTUS45 KTFX 311128
TAFLWT
TAF
KLWT 311128Z 3112/0112 29018G28KT P6SM BKN015 BKN040
     FM311500 30015G25KT P6SM BKN040 BKN070
     FM311800 31013G21KT P6SM BKN090
     FM010000 28007KT P6SM FEW120=



000
FTUS45 KTFX 310652 AAA
TAFHVR
TAF AMD
KHVR 310652Z 3107/0106 30018KT P6SM BKN025 OVC040
     FM311600 32015KT P6SM -SHRA BKN040
     FM312300 29012KT P6SM FEW060=



000
FTUS45 KTFX 310652 AAA
TAFLWT
TAF AMD
KLWT 310652Z 3107/0106 28009KT P6SM SCT030 BKN100
     FM311800 30014G25KT P6SM BKN050
     FM010000 28007KT P6SM SKC=



000
FTUS45 KTFX 310520
TAFLWT
TAF
KLWT 310520Z 3106/0106 28012KT P6SM VCSH BKN030 BKN100
     FM311800 30014G25KT P6SM BKN050
     FM010000 28007KT P6SM SKC=



000
FTUS45 KTFX 310520
TAFHVR
TAF
KHVR 310520Z 3106/0106 30016G25KT P6SM BKN035 OVC050
     FM311600 32015KT P6SM -SHRA BKN040
     FM312300 29012KT P6SM FEW060=



000
FTUS45 KTFX 301728 CCA
TAFHVR
TAF COR
KHVR 301728Z 3018/3118 28020G30KT P6SM VCSH BKN025
     FM301900 29020G30KT P6SM -SHRA BKN025
      TEMPO 3019/3023 6SM -RA BR
     FM310300 30015G25KT P6SM -SHRA OVC015
     FM311500 28015KT P6SM VCSH BKN015=



000
FTUS45 KTFX 301727
TAFHVR
TAF
KHVR 301727Z 3018/3118 28015KT P6SM VCSH BKN025
     FM301900 29015G30KT P6SM -SHRA BKN025
      TEMPO 3019/3023 6SM -RA BR
     FM310300 30015G25KT P6SM -SHRA OVC015
     FM311500 28015KT P6SM VCSH BKN015=



000
FTUS45 KTFX 301727
TAFCTB
TAF
KCTB 301727Z 3018/3118 32015G30KT P6SM VCSH SCT025 BKN040
     FM310200 32015KT P6SM SCT030
     FM311200 31015KT P6SM BKN020=



000
FTUS45 KTFX 301130
TAFHLN
TAF
KHLN 301130Z 3012/3112 VRB05KT P6SM BKN120
     FM301500 28007KT P6SM SCT050 BKN090
     FM301800 30018G25KT P6SM SCT070 BKN150
     FM310200 28007KT P6SM BKN150=



000
FTUS45 KTFX 301130
TAFGTF
TAF
KGTF 301130Z 3012/3112 31010KT P6SM BKN120
     FM301700 32015G22KT P6SM SCT050 BKN080
     FM302000 32015G22KT P6SM VCSH SCT040 BKN070
      TEMPO 3020/3024 -SHRA BKN040
     FM310200 32008KT P6SM BKN120=



000
FTUS45 KTFX 301130
TAFBZN
TAF
KBZN 301130Z 3012/3112 VRB05KT P6SM VCSH SCT040 BKN060
     FM301500 30010KT P6SM BKN080
     FM301900 31010KT P6SM BKN120
     FM310200 VRB05KT P6SM BKN150=



000
FTUS45 KTFX 301130
TAFHVR
TAF
KHVR 301130Z 3012/3112 26011KT P6SM VCSH SCT045 BKN070
      TEMPO 3012/3016 -SHRA BKN045
     FM301600 31018G25KT P6SM -RA SCT030 BKN060
     FM310300 32018KT P6SM BKN080=



000
FTUS45 KTFX 301130
TAFCTB
TAF
KCTB 301130Z 3012/3112 32014G24KT P6SM SCT030 BKN050
      TEMPO 3012/3015 -SHRA BKN030
     FM301500 31018G26KT P6SM VCSH SCT040 BKN070
     FM310200 33011KT P6SM BKN100=



000
FTUS45 KTFX 301130
TAFLWT
TAF
KLWT 301130Z 3012/3112 VRB05KT P6SM VCSH SCT050 BKN090
      TEMPO 3012/3016 -SHRA BKN050
     FM301600 30018G25KT P6SM -SHRA BKN060
     FM310000 30011KT P6SM SCT060 BKN100=



000
FTUS45 KTFX 301006 CCA
TAFCTB
TAF COR
KCTB 301006Z 3010/3106 33015G25KT P6SM -SHRA BKN010 BKN070
     FM301100 31018G30KT P6SM BKN035 BKN070
     FM301900 31018G28KT P6SM -SHRA SCT030 OVC050
     FM310100 33012KT P6SM SCT060=



000
FTUS45 KTFX 301005 AAB
TAFCTB
TAF AMD
KCTB 301005Z 3010/3106 33015G25KT P6SM BKN010 BKN070
     FM301100 31018G30KT P6SM BKN035 BKN070
     FM301900 31018G28KT P6SM -SHRA SCT030 OVC050
     FM310100 33012KT P6SM SCT060=



000
FTUS45 KTFX 300543
TAFHVR
TAF
KHVR 300543Z 3006/3106 16007KT P6SM SCT090 BKN150
     FM301400 26012KT P6SM OVC060
     FM301900 30018G28KT P6SM -RA SCT015 OVC035
     FM310300 32018KT P6SM OVC040=



000
FTUS45 KTFX 300543
TAFGTF
TAF
KGTF 300543Z 3006/3106 18006KT P6SM -SHRA SCT070 BKN100
     FM300800 22014KT P6SM SCT080 BKN110
     FM301300 28014G24KT P6SM SCT090 BKN150
     FM301700 30015G28KT P6SM -SHRA SCT060 BKN090
     FM302200 32014G28KT P6SM SCT090 BKN150
     FM310200 32008KT P6SM SCT120=



000
FTUS45 KTFX 300543
TAFCTB
TAF
KCTB 300543Z 3006/3106 24008KT P6SM SCT150
     FM300900 29014KT P6SM BKN050 OVC090
     FM301600 31018G30KT P6SM -SHRA BKN025 OVC040
     FM301900 31018G28KT P6SM VCSH SCT030 OVC050
     FM310100 33012KT P6SM SCT060=



000
FTUS45 KTFX 300543
TAFLWT
TAF
KLWT 300543Z 3006/3106 21006KT P6SM VCSH SCT090 BKN110
     FM301100 25006KT P6SM VCSH BKN070
     FM301500 30018G28KT P6SM -SHRA BKN070
     FM310000 30012KT P6SM SCT070 BKN110=



000
FTUS45 KTFX 300543
TAFHLN
TAF
KHLN 300543Z 3006/3106 26008KT P6SM VCSH SCT070 BKN110
     FM300800 29012KT P6SM BKN110
     FM301800 29018G28KT P6SM SCT060 BKN150
     FM310100 29009KT P6SM SKC=



000
FTUS45 KTFX 282327
TAFHLN
TAF
KHLN 282327Z 2900/2924 28018G23KT P6SM SCT070 SCT250
     FM290300 VRB06KT P6SM SCT250
     FM292000 24010G18KT P6SM SCT100 BKN250=



000
FTUS45 KTFX 282327
TAFHVR
TAF
KHVR 282327Z 2900/2924 26014G20KT P6SM BKN100
     FM290200 24007KT P6SM SCT100
     FM291900 25012G18KT P6SM SCT100 BKN250=



000
FTUS45 KTFX 282327
TAFGTF
TAF
KGTF 282327Z 2900/2924 25015G25KT P6SM SCT070 SCT250
     FM290300 23008KT P6SM SCT250
     FM291800 24012G20KT P6SM BKN250=



000
FTUS45 KTFX 282327
TAFBZN
TAF
KBZN 282327Z 2900/2924 VRB06KT P6SM FEW035 SCT100 BKN250=



000
FTUS45 KTFX 282327
TAFCTB
TAF
KCTB 282327Z 2900/2924 25013G22KT P6SM SCT070 BKN100
     FM290300 25009KT P6SM SCT150
     FM291800 25014G20KT P6SM SCT120 BKN250=



000
FTUS45 KTFX 282327
TAFLWT
TAF
KLWT 282327Z 2900/2924 30015G20KT P6SM SCT100
     FM290200 30006KT P6SM SCT250
     FM291900 30010G16KT P6SM SCT100 BKN250=



    US Dept of Commerce
    National Oceanic and Atmospheric Administration
    National Weather Service
    1325 East West Highway
    Silver Spring, MD 20910
    Page Author: NWS Internet Services Team
Disclaimer
Information Quality
Credits
Glossary
Privacy Policy
Freedom of Information Act (FOIA)
About Us
Career Opportunities